Time;durP1;ratioP1;P1;durP2;ratioP2;P2;SDS_P1;SDS_P2;PMS_P1;PMS_P2;Temp;Humidity;BMP_temperature;BMP_pressure;BME280_temperature;BME280_humidity;BME280_pressure;Samples;Min_cycle;Max_cycle;Signal;HPM_P1;HPM_P2
2021/08/28 00:02:23;;;;;;;9.37;2.97;;;13.40;99.90;;;;;;5008325;28;20576;-75
2021/08/28 00:04:53;;;;;;;7.97;3.10;;;13.40;99.90;;;;;;5011399;28;20808;-76
2021/08/28 00:07:26;;;;;;;13.63;2.80;;;13.40;99.90;;;;;;5010212;28;20206;-75
2021/08/28 00:10:02;;;;;;;7.33;3.10;;;13.40;99.90;;;;;;5009317;28;20672;-74
2021/08/28 00:12:31;;;;;;;11.33;3.70;;;13.30;99.90;;;;;;5009061;28;20221;-75
2021/08/28 00:15:02;;;;;;;12.80;3.50;;;13.30;99.90;;;;;;5009446;28;20298;-75
2021/08/28 00:17:35;;;;;;;12.30;5.67;;;13.20;99.90;;;;;;5010002;28;20199;-76
2021/08/28 00:20:05;;;;;;;10.47;4.90;;;13.20;99.90;;;;;;5010545;28;20194;-74
2021/08/28 00:22:32;;;;;;;13.53;4.77;;;13.30;99.90;;;;;;5010535;28;20230;-75
2021/08/28 00:25:02;;;;;;;19.63;10.03;;;13.30;99.90;;;;;;5012159;28;20257;-76
2021/08/28 00:27:41;;;;;;;18.80;12.77;;;13.30;99.90;;;;;;5010307;28;20209;-74
2021/08/28 00:30:16;;;;;;;14.20;9.80;;;13.20;99.90;;;;;;5011938;28;20202;-75
2021/08/28 00:32:44;;;;;;;12.57;7.30;;;13.20;99.90;;;;;;5011519;28;20205;-76
2021/08/28 00:35:13;;;;;;;11.23;4.67;;;13.20;99.90;;;;;;5009472;28;20226;-75
2021/08/28 00:37:49;;;;;;;12.20;4.30;;;13.30;99.90;;;;;;5007458;28;20190;-76
2021/08/28 00:40:20;;;;;;;10.27;4.20;;;13.30;99.90;;;;;;5011528;28;20194;-75
2021/08/28 00:42:51;;;;;;;8.73;3.93;;;13.30;99.90;;;;;;5006446;28;20190;-76
2021/08/28 00:45:19;;;;;;;11.83;4.07;;;13.30;99.90;;;;;;5007642;28;20297;-76
2021/08/28 00:47:52;;;;;;;7.80;4.10;;;13.30;99.90;;;;;;5010982;28;20206;-74
2021/08/28 00:50:21;;;;;;;14.13;4.53;;;13.30;99.90;;;;;;5004832;28;20314;-75
2021/08/28 00:52:50;;;;;;;12.23;4.23;;;13.40;99.90;;;;;;5003496;28;20198;-75
2021/08/28 00:55:18;;;;;;;11.57;4.83;;;13.40;99.90;;;;;;5009050;28;20226;-75
2021/08/28 00:57:48;;;;;;;9.60;4.93;;;13.50;99.90;;;;;;5010498;28;20221;-74
2021/08/28 01:00:16;;;;;;;13.67;6.03;;;13.50;99.90;;;;;;5003545;28;20202;-75
2021/08/28 01:02:47;;;;;;;14.60;5.27;;;13.50;99.90;;;;;;5000708;28;20197;-76
2021/08/28 01:05:24;;;;;;;12.63;5.40;;;13.50;99.90;;;;;;5010683;28;20210;-75
2021/08/28 01:08:05;;;;;;;13.83;6.10;;;13.60;99.90;;;;;;5010649;28;20198;-75
2021/08/28 01:10:38;;;;;;;13.80;6.90;;;13.60;99.90;;;;;;5011962;28;20209;-76
2021/08/28 01:13:12;;;;;;;9.43;5.50;;;13.60;99.90;;;;;;5009017;28;20240;-75
2021/08/28 01:15:41;;;;;;;14.07;5.60;;;13.60;99.90;;;;;;5007795;28;22441;-75
2021/08/28 01:18:11;;;;;;;11.13;4.93;;;13.70;99.90;;;;;;5010714;28;20205;-75
2021/08/28 01:20:53;;;;;;;9.30;4.60;;;13.70;99.90;;;;;;5012682;28;20205;-75
2021/08/28 01:23:21;;;;;;;12.43;6.00;;;13.70;99.90;;;;;;4996831;28;20218;-75
2021/08/28 01:25:51;;;;;;;10.27;5.17;;;13.70;99.90;;;;;;5008817;28;20198;-75
2021/08/28 01:28:20;;;;;;;9.57;5.17;;;13.80;99.90;;;;;;5006273;28;20214;-76
2021/08/28 01:30:50;;;;;;;10.07;4.57;;;13.80;99.90;;;;;;5010713;28;20580;-75
2021/08/28 01:33:21;;;;;;;10.80;4.80;;;13.80;99.90;;;;;;5007463;28;20222;-76
2021/08/28 01:35:50;;;;;;;8.77;5.03;;;13.90;99.90;;;;;;5007967;28;20584;-76
2021/08/28 01:38:37;;;;;;;14.53;5.93;;;13.80;99.90;;;;;;5008247;28;20541;-75
2021/08/28 01:41:51;;;;;;;15.77;6.23;;;13.80;99.90;;;;;;5008042;28;20671;-76
2021/08/28 01:44:32;;;;;;;13.13;5.60;;;13.70;99.90;;;;;;5000337;28;20206;-75
2021/08/28 01:47:01;;;;;;;9.97;6.07;;;13.70;99.90;;;;;;5005626;28;20656;-77
2021/08/28 01:49:29;;;;;;;12.97;6.30;;;13.70;99.90;;;;;;5008016;28;20656;-76
2021/08/28 01:52:00;;;;;;;13.27;6.17;;;13.70;99.90;;;;;;5010903;28;20654;-77
2021/08/28 01:54:31;;;;;;;14.37;5.73;;;13.80;99.90;;;;;;5010615;28;20206;-77
2021/08/28 01:57:07;;;;;;;14.77;5.50;;;13.80;99.90;;;;;;5007088;28;20225;-77
2021/08/28 01:59:46;;;;;;;11.93;5.13;;;13.80;99.90;;;;;;5007479;28;20523;-77
2021/08/28 02:02:25;;;;;;;14.27;5.33;;;13.90;99.90;;;;;;5002117;28;20212;-76
2021/08/28 02:05:06;;;;;;;13.10;5.40;;;13.90;99.90;;;;;;5005823;28;20197;-78
2021/08/28 02:07:52;;;;;;;15.20;5.57;;;13.90;99.90;;;;;;5000053;28;20746;-78
2021/08/28 02:10:25;;;;;;;15.60;5.27;;;14.00;99.90;;;;;;5010048;28;20209;-77
2021/08/28 02:12:57;;;;;;;9.77;5.10;;;13.90;99.90;;;;;;5004589;28;20642;-77
2021/08/28 02:15:31;;;;;;;13.13;5.27;;;13.90;99.90;;;;;;5007685;28;20615;-77
2021/08/28 02:18:08;;;;;;;13.77;6.00;;;13.90;99.90;;;;;;5006600;28;20656;-77
2021/08/28 02:21:02;;;;;;;12.50;5.90;;;13.90;99.90;;;;;;5008052;28;20620;-77
2021/08/28 02:23:41;;;;;;;15.33;5.80;;;13.90;99.90;;;;;;4995379;28;20191;-76
2021/08/28 02:26:19;;;;;;;15.23;5.50;;;13.90;99.90;;;;;;5008194;28;20194;-76
2021/08/28 02:28:53;;;;;;;12.33;5.67;;;13.90;99.90;;;;;;5009370;28;20198;-76
2021/08/28 02:31:30;;;;;;;17.10;5.73;;;13.90;99.90;;;;;;5008889;28;20193;-76
2021/08/28 02:34:04;;;;;;;14.83;5.57;;;13.80;99.90;;;;;;5003462;28;20748;-76
2021/08/28 02:36:38;;;;;;;14.80;6.37;;;13.80;99.90;;;;;;5005034;28;20676;-76
2021/08/28 02:39:10;;;;;;;15.17;6.67;;;13.80;99.90;;;;;;5009438;28;20289;-78
2021/08/28 02:41:43;;;;;;;12.10;5.73;;;13.90;99.90;;;;;;5005284;28;20205;-77
2021/08/28 02:44:18;;;;;;;12.30;6.10;;;13.90;99.90;;;;;;5003623;28;20190;-77
2021/08/28 02:47:09;;;;;;;13.20;6.67;;;13.90;99.90;;;;;;5005036;28;20198;-73
2021/08/28 02:49:46;;;;;;;15.93;6.60;;;13.90;99.90;;;;;;5007222;28;20206;-75
2021/08/28 02:52:25;;;;;;;17.27;7.27;;;13.80;99.90;;;;;;5005082;28;20208;-74
2021/08/28 02:55:17;;;;;;;19.83;8.63;;;13.70;99.90;;;;;;5011172;28;20712;-75
2021/08/28 03:01:21;;;;;;;17.50;7.93;;;13.60;99.90;;;;;;5002399;28;20560;-75
2021/08/28 03:06:36;;;;;;;15.37;7.30;;;13.50;99.90;;;;;;5002588;28;20743;-75
2021/08/28 03:09:04;;;;;;;18.03;7.60;;;13.50;99.90;;;;;;5010514;28;20194;-75
2021/08/28 03:11:33;;;;;;;17.60;7.67;;;13.50;99.90;;;;;;5008409;28;20198;-75
2021/08/28 03:14:01;;;;;;;13.90;7.30;;;13.40;99.90;;;;;;5009126;28;20209;-75
2021/08/28 03:16:35;;;;;;;17.13;7.77;;;13.50;99.90;;;;;;5003497;28;20468;-76
2021/08/28 03:19:08;;;;;;;17.67;8.07;;;13.40;99.90;;;;;;5006998;28;20221;-74
2021/08/28 03:21:42;;;;;;;14.20;8.27;;;13.40;99.90;;;;;;5005821;28;20735;-75
2021/08/28 03:24:11;;;;;;;13.73;6.87;;;13.40;99.90;;;;;;5005701;28;20197;-75
2021/08/28 03:26:39;;;;;;;16.70;8.60;;;13.40;99.90;;;;;;5008075;28;20691;-75
2021/08/28 03:29:07;;;;;;;21.80;8.97;;;13.30;99.90;;;;;;5014763;28;20194;-75
2021/08/28 03:31:35;;;;;;;17.40;9.43;;;13.20;99.90;;;;;;5013088;28;20198;-75
2021/08/28 03:34:03;;;;;;;22.70;11.13;;;13.20;99.90;;;;;;5005416;28;20198;-76
2021/08/28 03:36:33;;;;;;;22.73;10.60;;;13.20;99.90;;;;;;5009055;28;20225;-75
2021/08/28 03:39:20;;;;;;;22.10;11.17;;;13.20;99.90;;;;;;5011841;28;20190;-76
2021/08/28 03:41:54;;;;;;;18.50;11.03;;;13.20;99.90;;;;;;5012165;28;20202;-75
2021/08/28 03:44:27;;;;;;;19.80;10.77;;;13.10;99.90;;;;;;5013309;28;20672;-75
2021/08/28 03:47:05;;;;;;;22.07;10.60;;;13.20;99.90;;;;;;5012359;28;20206;-75
2021/08/28 03:49:48;;;;;;;19.03;10.30;;;13.20;99.90;;;;;;5012722;28;20194;-75
2021/08/28 03:52:22;;;;;;;19.40;9.50;;;13.10;99.90;;;;;;5003193;28;20210;-76
2021/08/28 03:54:53;;;;;;;17.47;9.00;;;13.10;99.90;;;;;;5013590;28;20654;-76
2021/08/28 03:57:20;;;;;;;18.93;8.83;;;13.10;99.90;;;;;;5012730;28;20591;-76
2021/08/28 03:59:51;;;;;;;22.00;9.53;;;13.00;99.90;;;;;;5014425;28;20225;-74
2021/08/28 04:02:20;;;;;;;19.93;10.27;;;13.00;99.90;;;;;;5008423;28;20564;-75
2021/08/28 04:04:48;;;;;;;15.33;10.07;;;13.00;99.90;;;;;;5009322;28;20810;-76
2021/08/28 04:07:19;;;;;;;21.00;10.50;;;13.10;99.90;;;;;;5011833;28;20353;-77
2021/08/28 04:10:05;;;;;;;22.83;10.43;;;13.10;99.90;;;;;;5008590;28;20657;-76
2021/08/28 04:12:32;;;;;;;22.67;10.73;;;13.10;99.90;;;;;;5007144;28;20309;-76
2021/08/28 04:15:06;;;;;;;22.10;10.73;;;13.00;99.90;;;;;;5012659;28;20202;-77
2021/08/28 04:17:54;;;;;;;18.80;11.90;;;13.00;99.90;;;;;;5006463;28;20225;-76
2021/08/28 04:20:35;;;;;;;18.63;11.83;;;13.00;99.90;;;;;;5013801;28;20247;-77
2021/08/28 04:23:26;;;;;;;22.80;12.13;;;13.10;99.90;;;;;;5002317;28;20672;-78
2021/08/28 04:26:17;;;;;;;22.03;12.43;;;13.20;99.90;;;;;;5007429;28;20268;-76
2021/08/28 04:28:46;;;;;;;22.37;13.33;;;13.20;99.90;;;;;;5007095;28;20199;-77
2021/08/28 04:31:17;;;;;;;27.10;13.40;;;13.20;99.90;;;;;;5008817;28;20202;-75
2021/08/28 04:33:48;;;;;;;23.03;15.43;;;13.20;99.90;;;;;;5010599;28;20205;-76
2021/08/28 04:36:16;;;;;;;27.10;15.60;;;13.40;99.90;;;;;;5013756;28;20222;-75
2021/08/28 04:41:44;;;;;;;29.83;15.50;;;13.40;99.90;;;;;;5007959;28;20194;-75
2021/08/28 04:44:41;;;;;;;26.87;14.77;;;13.40;99.90;;;;;;5006206;28;20424;-75
2021/08/28 04:47:26;;;;;;;24.23;15.60;;;13.30;99.90;;;;;;5009760;28;20202;-75
2021/08/28 04:50:08;;;;;;;20.20;13.87;;;13.30;99.90;;;;;;5001643;28;20203;-75
2021/08/28 04:52:40;;;;;;;18.60;14.33;;;13.30;99.90;;;;;;5002006;28;20217;-76
2021/08/28 04:55:14;;;;;;;22.10;14.73;;;13.30;99.90;;;;;;5011064;28;20253;-76
2021/08/28 04:57:45;;;;;;;24.30;15.33;;;13.20;99.90;;;;;;5008714;28;20226;-77
2021/08/28 05:00:13;;;;;;;26.67;15.60;;;13.20;99.90;;;;;;5014107;28;20285;-77
2021/08/28 05:02:42;;;;;;;24.80;13.90;;;13.20;99.90;;;;;;5004404;28;20210;-76
2021/08/28 05:05:11;;;;;;;21.63;13.73;;;13.20;99.90;;;;;;5006783;28;20194;-75
2021/08/28 05:07:41;;;;;;;23.17;14.77;;;13.30;99.90;;;;;;5003069;28;20209;-76
2021/08/28 05:10:12;;;;;;;23.87;15.57;;;13.50;99.90;;;;;;5005498;28;20194;-76
2021/08/28 05:12:47;;;;;;;21.30;14.43;;;13.50;99.90;;;;;;5013391;28;20198;-76
2021/08/28 05:15:19;;;;;;;22.20;14.47;;;13.40;99.90;;;;;;5004936;28;20206;-76
2021/08/28 05:17:53;;;;;;;21.73;14.47;;;13.40;99.90;;;;;;5005146;28;20272;-76
2021/08/28 05:20:22;;;;;;;19.70;14.13;;;13.30;99.90;;;;;;5011303;28;20376;-76
2021/08/28 05:22:49;;;;;;;24.57;13.63;;;13.30;99.90;;;;;;5012775;28;20549;-76
2021/08/28 05:25:19;;;;;;;22.27;13.17;;;13.30;99.90;;;;;;5011939;28;20292;-76
2021/08/28 05:27:55;;;;;;;20.63;13.07;;;13.40;99.90;;;;;;5010957;28;20205;-76
2021/08/28 05:30:23;;;;;;;19.80;12.30;;;13.40;99.90;;;;;;5013099;28;20640;-76
2021/08/28 05:32:54;;;;;;;20.87;11.97;;;13.40;99.90;;;;;;5011191;28;20664;-77
2021/08/28 05:35:36;;;;;;;17.67;12.83;;;13.40;99.90;;;;;;5012366;28;20194;-76
2021/08/28 05:38:06;;;;;;;21.67;14.60;;;13.50;99.90;;;;;;5007394;28;20236;-76
2021/08/28 05:40:44;;;;;;;22.03;16.80;;;13.50;99.90;;;;;;5007313;28;20195;-76
2021/08/28 05:43:29;;;;;;;20.13;12.73;;;13.60;99.90;;;;;;5009878;28;20671;-76
2021/08/28 05:46:05;;;;;;;22.17;13.07;;;13.70;99.90;;;;;;5004900;28;20281;-78
2021/08/28 05:48:35;;;;;;;20.60;13.47;;;13.70;99.90;;;;;;5009492;28;20215;-77
2021/08/28 05:51:09;;;;;;;21.47;12.77;;;13.80;99.90;;;;;;5011250;28;20226;-75
2021/08/28 05:53:40;;;;;;;27.00;13.70;;;13.90;99.90;;;;;;4997559;28;20264;-77
2021/08/28 05:56:11;;;;;;;23.97;13.50;;;14.10;99.90;;;;;;5011835;28;20198;-76
2021/08/28 05:58:49;;;;;;;19.63;12.20;;;14.10;99.90;;;;;;5010991;28;20731;-76
2021/08/28 06:01:19;;;;;;;19.43;12.33;;;14.20;99.90;;;;;;5009978;28;20253;-77
2021/08/28 06:03:54;;;;;;;15.40;11.77;;;14.20;99.90;;;;;;5003798;28;20221;-75
2021/08/28 06:06:49;;;;;;;18.47;11.43;;;14.30;99.90;;;;;;4999331;28;20202;-76
2021/08/28 06:09:29;;;;;;;19.60;11.37;;;14.50;99.90;;;;;;5003311;28;20214;-76
2021/08/28 06:12:00;;;;;;;14.50;10.23;;;14.60;99.90;;;;;;5001050;28;20206;-76
2021/08/28 06:14:33;;;;;;;16.73;9.10;;;14.70;99.90;;;;;;5010204;28;20209;-77
2021/08/28 06:17:03;;;;;;;14.83;8.57;;;14.80;99.90;;;;;;5008286;28;20676;-76
2021/08/28 06:19:32;;;;;;;9.67;8.07;;;14.90;99.90;;;;;;5009959;28;20198;-75
2021/08/28 06:22:00;;;;;;;13.35;7.85;;;15.00;99.90;;;;;;5005912;28;20215;-76
2021/08/28 06:24:35;;;;;;;16.50;8.27;;;15.10;99.90;;;;;;5009301;28;20665;-77
2021/08/28 06:27:04;;;;;;;13.63;7.03;;;15.20;99.90;;;;;;5002120;28;20206;-75
2021/08/28 06:29:34;;;;;;;13.37;7.53;;;15.20;99.90;;;;;;4999884;28;20202;-75
2021/08/28 06:32:02;;;;;;;16.23;8.00;;;15.30;99.90;;;;;;4997068;28;20314;-75
2021/08/28 06:34:36;;;;;;;16.92;9.15;;;15.50;99.90;;;;;;5006620;28;20190;-76
2021/08/28 06:37:19;;;;;;;14.02;7.72;;;15.70;99.90;;;;;;5010002;28;20230;-77
2021/08/28 06:39:50;;;;;;;12.30;7.32;;;15.90;99.90;;;;;;5011052;28;20288;-78
2021/08/28 06:42:18;;;;;;;13.45;6.60;;;16.10;99.90;;;;;;5012371;28;20198;-74
2021/08/28 06:44:53;;;;;;;12.23;6.35;;;16.10;99.90;;;;;;5013085;28;20212;-74
2021/08/28 06:47:21;;;;;;;13.02;6.03;;;16.00;99.90;;;;;;5009712;28;20205;-75
2021/08/28 06:49:52;;;;;;;14.90;6.55;;;16.00;99.90;;;;;;5014219;28;20212;-74
2021/08/28 06:52:22;;;;;;;10.18;5.53;;;16.10;99.90;;;;;;5025189;28;20196;-74
2021/08/28 06:54:50;;;;;;;12.95;6.05;;;16.20;99.90;;;;;;4992672;28;20203;-76
2021/08/28 06:57:20;;;;;;;13.45;6.57;;;16.30;99.90;;;;;;5004614;28;20234;-75
2021/08/28 06:59:50;;;;;;;12.88;6.28;;;16.40;99.90;;;;;;5009570;28;20198;-76
2021/08/28 07:02:17;;;;;;;9.88;5.30;;;16.40;99.90;;;;;;5011805;28;20202;-75
2021/08/28 07:04:45;;;;;;;12.70;5.60;;;16.50;99.90;;;;;;5003146;28;20194;-76
2021/08/28 07:07:34;;;;;;;;;;;;;;;;;;;;;
2021/08/28 07:10:16;;;;;;;14.90;5.97;;;16.70;99.90;;;;;;5007143;28;20198;-75
2021/08/28 07:13:18;;;;;;;14.32;5.90;;;16.90;99.90;;;;;;4995910;28;20194;-75
2021/08/28 07:15:59;;;;;;;9.32;5.05;;;17.30;99.90;;;;;;4993799;28;20202;-76
2021/08/28 07:18:48;;;;;;;12.40;5.28;;;17.60;99.90;;;;;;5007835;28;20226;-75
2021/08/28 07:21:53;;;;;;;8.80;4.90;;;18.00;99.90;;;;;;5011645;28;20198;-76
2021/08/28 07:24:24;;;;;;;13.10;5.22;;;18.20;99.90;;;;;;4931712;29;20208;-75
2021/08/28 07:26:52;;;;;;;13.90;5.13;;;18.20;99.90;;;;;;4931401;29;20221;-75
2021/08/28 07:29:20;;;;;;;12.07;5.30;;;18.10;99.90;;;;;;4965816;28;20194;-75
2021/08/28 07:31:49;;;;;;;8.70;5.20;;;18.20;99.90;;;;;;5010926;28;20285;-75
2021/08/28 07:34:20;;;;;;;8.13;4.82;;;18.20;99.90;;;;;;5008993;28;20273;-73
2021/08/28 07:36:48;;;;;;;8.55;4.82;;;18.30;99.90;;;;;;5006528;28;20218;-73
2021/08/28 07:39:19;;;;;;;11.02;5.05;;;18.20;99.90;;;;;;5005953;28;20226;-73
2021/08/28 07:41:49;;;;;;;9.57;4.55;;;18.20;99.90;;;;;;5010431;28;20244;-76
2021/08/28 07:44:17;;;;;;;19.08;8.15;;;18.10;99.90;;;;;;5004803;28;20202;-75
2021/08/28 07:46:48;;;;;;;8.32;4.80;;;17.90;99.90;;;;;;5006684;28;20217;-75
2021/08/28 07:49:22;;;;;;;12.30;4.78;;;18.10;99.90;;;;;;5006025;28;20719;-74
2021/08/28 07:51:51;;;;;;;637.10;431.70;;;18.20;99.90;;;;;;5007200;28;20276;-75
2021/08/28 07:54:18;;;;;;;55.83;27.58;;;17.80;99.90;;;;;;5006900;28;20700;-75
2021/08/28 07:56:46;;;;;;;9.43;4.68;;;17.70;99.90;;;;;;5007356;28;20190;-73
2021/08/28 07:59:13;;;;;;;12.43;4.88;;;17.70;99.90;;;;;;5007380;28;20242;-74
2021/08/28 08:01:48;;;;;;;10.18;4.20;;;17.70;99.90;;;;;;5008280;28;20198;-73
2021/08/28 08:04:43;;;;;;;268.98;179.13;;;17.80;99.90;;;;;;5005862;28;20306;-73
2021/08/28 08:07:11;;;;;;;6.32;3.58;;;18.20;99.90;;;;;;5016959;22;20329;-74
2021/08/28 08:09:39;;;;;;;7.93;3.80;;;18.10;99.90;;;;;;5013005;28;20209;-75
2021/08/28 08:12:07;;;;;;;8.77;4.20;;;18.10;99.90;;;;;;5028890;28;20202;-73
2021/08/28 08:14:34;;;;;;;7.43;3.88;;;18.30;99.90;;;;;;5027498;28;20205;-74
2021/08/28 08:17:02;;;;;;;36.40;17.38;;;18.20;99.90;;;;;;5034630;28;20220;-74
2021/08/28 08:19:32;;;;;;;54.95;33.85;;;18.30;99.90;;;;;;5032276;28;20276;-74
2021/08/28 08:22:01;;;;;;;8.45;3.65;;;18.80;99.90;;;;;;5034005;28;20189;-75
2021/08/28 08:24:32;;;;;;;8.38;2.92;;;21.20;99.90;;;;;;5018094;28;20237;-75
2021/08/28 08:27:00;;;;;;;4.90;2.45;;;22.90;99.90;;;;;;5022165;28;20233;-73
2021/08/28 08:29:27;;;;;;;6.53;2.73;;;22.50;99.90;;;;;;5016011;28;20684;-73
2021/08/28 08:31:55;;;;;;;6.72;3.22;;;21.60;99.90;;;;;;5019992;28;20544;-77
2021/08/28 08:34:23;;;;;;;4.97;2.75;;;21.70;99.90;;;;;;5019857;28;20607;-72
2021/08/28 08:36:50;;;;;;;7.82;3.10;;;22.30;99.90;;;;;;5022015;28;20193;-73
2021/08/28 08:39:19;;;;;;;5.15;2.50;;;21.40;99.90;;;;;;5021163;28;20209;-73
2021/08/28 08:41:47;;;;;;;5.53;3.40;;;20.10;99.90;;;;;;5015498;28;20703;-74
2021/08/28 08:44:18;;;;;;;6.15;2.60;;;19.20;99.90;;;;;;5016370;28;20318;-75
2021/08/28 08:46:45;;;;;;;7.45;3.20;;;18.90;99.90;;;;;;5020533;28;20311;-75
2021/08/28 08:49:13;;;;;;;8.10;2.80;;;18.90;99.90;;;;;;5015354;28;20221;-74
2021/08/28 08:51:41;;;;;;;5.00;2.97;;;19.10;99.90;;;;;;5010048;28;20513;-74
2021/08/28 08:54:08;;;;;;;6.45;2.80;;;18.70;99.90;;;;;;5009106;28;20245;-74
2021/08/28 08:56:37;;;;;;;4.60;2.38;;;18.80;99.90;;;;;;5010188;28;20199;-73
2021/08/28 08:59:05;;;;;;;6.45;2.80;;;19.00;99.90;;;;;;5012513;28;20261;-74
2021/08/28 09:01:32;;;;;;;10.20;2.75;;;19.50;99.90;;;;;;5012025;28;20195;-74
2021/08/28 09:03:59;;;;;;;5.95;2.35;;;19.70;99.90;;;;;;5011657;28;20228;-73
2021/08/28 09:06:26;;;;;;;5.50;2.28;;;21.00;99.90;;;;;;5016095;28;20308;-74
2021/08/28 09:08:52;;;;;;;5.45;2.30;;;22.00;99.90;;;;;;5015710;28;20740;-75
2021/08/28 09:11:21;;;;;;;4.93;2.00;;;23.30;99.90;;;;;;5022225;28;20293;-73
2021/08/28 09:13:50;;;;;;;3.30;2.15;;;22.10;99.90;;;;;;5012484;28;20293;-74
2021/08/28 09:16:29;;;;;;;4.85;2.00;;;20.70;99.90;;;;;;5011213;28;20650;-74
2021/08/28 09:18:56;;;;;;;4.68;2.25;;;19.90;99.90;;;;;;5013608;28;20225;-74
2021/08/28 09:21:30;;;;;;;5.68;2.50;;;22.00;99.90;;;;;;5021069;28;20289;-74
2021/08/28 09:24:00;;;;;;;4.18;2.10;;;22.70;99.90;;;;;;5013707;28;20236;-75
2021/08/28 09:26:29;;;;;;;4.68;2.40;;;21.80;99.90;;;;;;5014277;28;20220;-74
2021/08/28 09:28:58;;;;;;;4.28;2.20;;;20.60;99.90;;;;;;5014860;28;20224;-73
2021/08/28 09:31:47;;;;;;;5.63;2.53;;;20.20;99.90;;;;;;5023167;28;20644;-73
2021/08/28 09:34:23;;;;;;;3.53;2.10;;;21.70;99.90;;;;;;5012583;28;20650;-73
2021/08/28 09:36:57;;;;;;;4.45;2.60;;;22.70;99.90;;;;;;5017387;28;20190;-74
2021/08/28 09:39:38;;;;;;;3.47;2.08;;;22.30;99.90;;;;;;5012189;28;20220;-73
2021/08/28 09:42:06;;;;;;;6.75;2.72;;;20.60;99.90;;;;;;5019642;28;20559;-74
2021/08/28 09:44:39;;;;;;;3.90;2.47;;;19.60;99.90;;;;;;5019983;28;20281;-74
2021/08/28 09:47:11;;;;;;;4.20;2.42;;;19.30;99.90;;;;;;5023393;28;20198;-75
2021/08/28 09:49:39;;;;;;;7.72;2.70;;;19.00;99.90;;;;;;5014914;28;20198;-75
2021/08/28 09:52:10;;;;;;;6.25;2.80;;;18.80;99.90;;;;;;5013810;28;20538;-72
2021/08/28 09:54:38;;;;;;;8.60;3.38;;;18.40;99.90;;;;;;5015030;28;22242;-73
2021/08/28 09:57:05;;;;;;;7.45;3.42;;;18.00;99.90;;;;;;5016697;28;20194;-73
2021/08/28 09:59:32;;;;;;;6.55;3.65;;;17.80;99.90;;;;;;5011686;28;20225;-74
2021/08/28 10:02:03;;;;;;;8.07;4.03;;;17.60;99.90;;;;;;5010102;28;20200;-74
2021/08/28 10:04:30;;;;;;;6.32;3.58;;;17.40;99.90;;;;;;5015859;28;20205;-75
2021/08/28 10:06:58;;;;;;;5.05;3.25;;;17.30;99.90;;;;;;5012981;28;20660;-75
2021/08/28 10:09:25;;;;;;;5.95;3.60;;;17.30;99.90;;;;;;5011606;28;20209;-76
2021/08/28 10:11:54;;;;;;;6.93;3.42;;;17.50;99.90;;;;;;5011898;28;20196;-73
2021/08/28 10:14:21;;;;;;;4.95;3.60;;;17.70;99.90;;;;;;5012295;28;20189;-73
2021/08/28 10:16:49;;;;;;;6.43;3.88;;;17.70;99.90;;;;;;5010588;28;20206;-74
2021/08/28 10:19:19;;;;;;;5.80;3.85;;;18.00;99.90;;;;;;5011745;28;20249;-74
2021/08/28 10:21:47;;;;;;;7.03;4.45;;;18.50;99.90;;;;;;5012245;28;20288;-74
2021/08/28 10:24:15;;;;;;;9.95;4.20;;;18.80;99.90;;;;;;5012169;28;20568;-74
2021/08/28 10:26:43;;;;;;;6.82;4.10;;;18.70;99.90;;;;;;5012185;28;20201;-74
2021/08/28 10:29:13;;;;;;;9.85;4.00;;;19.10;99.90;;;;;;5009804;28;20664;-74
2021/08/28 10:31:41;;;;;;;6.35;3.67;;;18.80;99.90;;;;;;5008805;28;20569;-74
2021/08/28 10:34:08;;;;;;;5.43;3.10;;;18.80;99.90;;;;;;5008740;28;20206;-74
2021/08/28 10:36:37;;;;;;;6.10;3.47;;;18.90;99.90;;;;;;5011521;28;20328;-75
2021/08/28 10:39:06;;;;;;;7.45;3.92;;;19.10;99.90;;;;;;5008890;28;20236;-76
2021/08/28 10:41:33;;;;;;;7.88;3.53;;;19.00;99.90;;;;;;5013699;28;20221;-75
2021/08/28 10:44:00;;;;;;;6.78;3.55;;;18.90;99.90;;;;;;5011930;28;20213;-75
2021/08/28 10:46:30;;;;;;;4.45;2.75;;;19.10;99.90;;;;;;5014044;28;20221;-75
2021/08/28 10:48:59;;;;;;;8.00;3.53;;;19.00;99.90;;;;;;5008406;28;20214;-74
2021/08/28 10:51:27;;;;;;;6.78;3.80;;;19.10;99.90;;;;;;5009925;28;20240;-73
2021/08/28 10:53:56;;;;;;;4.72;3.08;;;19.20;99.90;;;;;;5009508;28;20202;-73
2021/08/28 10:56:53;;;;;;;5.10;3.00;;;19.40;99.90;;;;;;5018401;28;20305;-73
2021/08/28 10:59:23;;;;;;;6.35;2.90;;;19.60;99.90;;;;;;5018372;28;20251;-73
2021/08/28 11:02:02;;;;;;;4.40;2.97;;;19.80;99.90;;;;;;5015751;28;20285;-74
2021/08/28 11:04:36;;;;;;;7.18;3.20;;;19.50;99.90;;;;;;5016623;28;20309;-75
2021/08/28 11:07:24;;;;;;;5.45;3.10;;;19.40;99.90;;;;;;5010219;28;20533;-74
2021/08/28 11:10:12;;;;;;;7.10;3.65;;;19.50;99.90;;;;;;5011457;28;20226;-74
2021/08/28 11:12:54;;;;;;;5.47;3.47;;;19.90;99.90;;;;;;5013980;28;20216;-74
2021/08/28 11:15:43;;;;;;;4.68;2.53;;;20.30;99.90;;;;;;5008420;28;20214;-74
2021/08/28 11:18:13;;;;;;;4.68;2.63;;;20.60;99.90;;;;;;5009978;28;20702;-75
2021/08/28 11:20:42;;;;;;;5.25;2.80;;;20.10;99.90;;;;;;5014604;28;20259;-75
2021/08/28 11:23:11;;;;;;;3.63;2.70;;;19.90;99.90;;;;;;5012357;28;20639;-75
2021/08/28 11:25:41;;;;;;;4.43;3.13;;;19.40;99.90;;;;;;5009622;28;20275;-75
2021/08/28 11:28:08;;;;;;;4.72;3.00;;;19.20;99.90;;;;;;5014545;28;20685;-75
2021/08/28 11:30:56;;;;;;;4.43;3.00;;;19.30;99.90;;;;;;5012332;28;20198;-75
2021/08/28 11:33:25;;;;;;;7.15;3.40;;;19.20;99.90;;;;;;5018659;28;20204;-76
2021/08/28 11:35:54;;;;;;;6.72;3.83;;;19.20;99.90;;;;;;5011553;28;20354;-76
2021/08/28 11:38:23;;;;;;;6.60;3.58;;;19.20;99.90;;;;;;5019325;28;20228;-75
2021/08/28 11:41:00;;;;;;;5.32;3.25;;;19.30;99.90;;;;;;5019679;28;20611;-76
2021/08/28 11:43:33;;;;;;;8.55;3.90;;;19.50;99.90;;;;;;5012655;28;20249;-75
2021/08/28 11:46:05;;;;;;;6.95;4.45;;;19.70;99.90;;;;;;5016216;28;20201;-73
2021/08/28 11:48:35;;;;;;;5.35;3.60;;;20.10;99.90;;;;;;5015565;28;20255;-73
2021/08/28 11:51:07;;;;;;;8.02;3.58;;;20.60;99.90;;;;;;5019082;28;20194;-74
2021/08/28 11:53:35;;;;;;;6.93;3.90;;;21.00;99.90;;;;;;5013224;28;20275;-74
2021/08/28 11:56:06;;;;;;;6.95;3.40;;;20.20;99.90;;;;;;5015842;28;20194;-77
2021/08/28 11:58:33;;;;;;;5.43;3.75;;;20.00;99.90;;;;;;5013436;28;20320;-76
2021/08/28 12:01:00;;;;;;;5.65;3.17;;;19.90;99.90;;;;;;5013032;28;20615;-74
2021/08/28 12:03:27;;;;;;;5.15;3.40;;;19.30;99.90;;;;;;5016806;28;20193;-76
2021/08/28 12:05:55;;;;;;;7.30;4.18;;;19.10;99.90;;;;;;5015541;28;20218;-77
2021/08/28 12:08:22;;;;;;;7.63;4.40;;;19.00;99.90;;;;;;5012870;28;20225;-78
2021/08/28 12:10:49;;;;;;;8.68;4.30;;;19.00;99.90;;;;;;5013643;28;20273;-76
2021/08/28 12:13:17;;;;;;;7.80;4.40;;;19.00;99.90;;;;;;5018989;28;20261;-77
2021/08/28 12:15:50;;;;;;;7.55;4.22;;;19.10;99.90;;;;;;5018476;28;20314;-75
2021/08/28 12:18:28;;;;;;;10.23;4.57;;;19.20;99.90;;;;;;5018423;28;20226;-75
2021/08/28 12:20:55;;;;;;;7.70;4.45;;;19.50;99.90;;;;;;5012384;28;20232;-75
2021/08/28 12:23:22;;;;;;;7.60;4.00;;;19.80;99.90;;;;;;5017409;28;20720;-75
2021/08/28 12:25:49;;;;;;;10.30;4.40;;;20.30;99.90;;;;;;5023508;28;20213;-75
2021/08/28 12:28:17;;;;;;;5.15;4.13;;;20.70;99.90;;;;;;5026868;28;20201;-75
2021/08/28 12:30:54;;;;;;;8.25;4.90;;;21.30;99.90;;;;;;5024605;28;20225;-75
2021/08/28 12:33:25;;;;;;;8.82;4.60;;;21.70;99.90;;;;;;5021706;28;20218;-75
2021/08/28 12:35:52;;;;;;;8.48;4.43;;;21.70;99.90;;;;;;5025185;28;21013;-75
2021/08/28 12:38:19;;;;;;;6.30;4.43;;;21.20;99.90;;;;;;5023236;28;20298;-74
2021/08/28 12:40:46;;;;;;;10.90;4.80;;;20.70;99.90;;;;;;5018431;28;20701;-74
2021/08/28 12:43:14;;;;;;;6.03;4.38;;;20.60;99.90;;;;;;5027427;28;20201;-75
2021/08/28 12:45:42;;;;;;;6.53;4.20;;;20.50;99.90;;;;;;5025722;28;20198;-72
2021/08/28 12:48:09;;;;;;;6.15;4.10;;;20.70;99.90;;;;;;5023623;28;20567;-73
2021/08/28 12:50:36;;;;;;;5.68;4.28;;;21.30;99.90;;;;;;5015802;28;20228;-73
2021/08/28 12:53:07;;;;;;;5.72;4.20;;;21.30;99.90;;;;;;5014673;28;20332;-73
2021/08/28 12:55:34;;;;;;;4.95;4.00;;;21.40;99.90;;;;;;5017863;28;20206;-72
2021/08/28 12:58:03;;;;;;;7.90;4.53;;;21.30;99.90;;;;;;5020001;28;20198;-73
2021/08/28 13:00:32;;;;;;;7.28;4.00;;;21.30;99.90;;;;;;5017240;28;20231;-72
2021/08/28 13:03:00;;;;;;;9.38;4.40;;;20.80;99.90;;;;;;5020221;28;20221;-72
2021/08/28 13:05:29;;;;;;;7.93;4.22;;;21.00;99.90;;;;;;5021369;28;20578;-72
2021/08/28 13:07:57;;;;;;;6.47;3.95;;;21.00;99.90;;;;;;5016636;28;20211;-72
2021/08/28 13:10:25;;;;;;;7.72;3.78;;;21.60;99.90;;;;;;5021915;28;20245;-71
2021/08/28 13:12:58;;;;;;;7.60;3.80;;;21.60;99.90;;;;;;5025425;28;20194;-74
2021/08/28 13:15:41;;;;;;;4.28;3.33;;;21.70;99.90;;;;;;5019552;28;20221;-72
2021/08/28 13:18:16;;;;;;;4.68;3.03;;;21.40;99.90;;;;;;5014666;28;20214;-73